createdAt,value
2023-02-17T00:01:33.406Z,107.60
2023-02-17T00:04:11.501Z,101.93
2023-02-17T00:06:47.179Z,93.15
2023-02-17T00:09:20.001Z,101.90
2023-02-17T00:11:56.234Z,95.32
2023-02-17T00:17:17.226Z,81.05
2023-02-17T00:19:51.926Z,84.80
2023-02-17T00:22:30.089Z,86.95
2023-02-17T00:25:05.134Z,87.28
2023-02-17T00:27:49.475Z,95.43
2023-02-17T00:30:21.840Z,106.60
2023-02-17T00:33:00.383Z,106.50
2023-02-17T00:35:36.033Z,119.35
2023-02-17T00:38:11.265Z,124.05
2023-02-17T00:40:45.349Z,121.15
2023-02-17T00:43:22.955Z,130.90
2023-02-17T00:46:04.550Z,125.03
2023-02-17T00:48:39.317Z,128.55
2023-02-17T00:51:18.344Z,121.05
2023-02-17T00:53:48.516Z,121.38
2023-02-17T00:56:31.824Z,119.07
2023-02-17T00:59:09.449Z,112.93
2023-02-17T01:01:51.362Z,106.55
2023-02-17T01:04:26.623Z,111.88
2023-02-17T01:06:59.529Z,116.05
2023-02-17T01:09:37.712Z,113.45
2023-02-17T01:12:10.466Z,109.63
2023-02-17T01:14:42.239Z,107.35
2023-02-17T01:17:17.370Z,113.47
2023-02-17T01:19:55.349Z,115.95
2023-02-17T01:22:30.570Z,107.43
2023-02-17T01:25:05.508Z,113.30
2023-02-17T01:27:38.890Z,104.97
2023-02-17T01:30:16.705Z,103.60
2023-02-17T01:32:53.514Z,99.72
2023-02-17T01:35:34.102Z,103.93
2023-02-17T01:38:15.120Z,102.72
2023-02-17T01:40:55.933Z,110.68
2023-02-17T01:43:29.476Z,105.00
2023-02-17T01:46:11.978Z,113.25
2023-02-17T01:48:53.685Z,111.13
2023-02-17T01:51:35.484Z,113.07
2023-02-17T01:54:21.060Z,111.18
2023-02-17T01:56:59.390Z,105.40
2023-02-17T01:59:37.728Z,105.22
2023-02-17T02:02:16.559Z,112.68
2023-02-17T02:05:00.739Z,105.43
2023-02-17T02:07:36.474Z,112.85
2023-02-17T02:10:15.582Z,113.22
2023-02-17T02:12:45.636Z,112.93
2023-02-17T02:15:28.096Z,105.43
2023-02-17T02:18:15.550Z,105.55
2023-02-17T02:21:18.531Z,99.15
2023-02-17T02:24:31.300Z,107.18
2023-02-17T02:27:26.538Z,94.93
2023-02-17T02:30:31.459Z,94.90
2023-02-17T02:33:23.504Z,92.63
2023-02-17T02:36:06.403Z,93.40
2023-02-17T02:38:58.870Z,87.60
2023-02-17T02:41:37.340Z,90.57
2023-02-17T02:44:19.322Z,92.63
2023-02-17T02:47:24.878Z,88.78
2023-02-17T02:49:58.380Z,87.72
2023-02-17T02:52:52.343Z,90.32
2023-02-17T02:55:57.826Z,96.32
2023-02-17T02:59:07.471Z,88.85
2023-02-17T03:01:50.833Z,95.28
2023-02-17T03:04:36.329Z,94.57
2023-02-17T03:07:59.752Z,97.85
2023-02-17T03:10:35.865Z,91.78
2023-02-17T03:13:26.792Z,102.15
2023-02-17T03:16:02.220Z,98.25
2023-02-17T03:18:38.620Z,92.18
2023-02-17T03:21:19.111Z,95.63
2023-02-17T03:24:00.794Z,98.45
2023-02-17T03:26:34.195Z,101.78
2023-02-17T03:29:09.456Z,100.72
2023-02-17T03:31:44.686Z,97.55
2023-02-17T03:34:17.481Z,97.90
2023-02-17T03:36:49.690Z,77.90
2023-02-17T03:39:32.357Z,101.10
2023-02-17T03:42:12.767Z,71.60
2023-02-17T03:44:48.082Z,94.55
2023-02-17T03:47:19.899Z,96.43
2023-02-17T03:49:59.731Z,101.10
2023-02-17T03:52:34.754Z,102.90
2023-02-17T03:55:07.651Z,114.43
2023-02-17T03:57:40.945Z,107.85
2023-02-17T04:00:14.031Z,103.97
2023-02-17T04:02:47.055Z,102.78
2023-02-17T04:05:27.472Z,99.50
2023-02-17T04:08:10.141Z,98.97
2023-02-17T04:10:42.930Z,95.53
2023-02-17T04:13:20.619Z,94.40
2023-02-17T04:16:02.446Z,90.72
2023-02-17T04:18:37.650Z,89.95
2023-02-17T04:21:11.059Z,94.28
2023-02-17T04:23:49.041Z,93.65
2023-02-17T04:26:21.881Z,91.35
2023-02-17T04:28:58.334Z,69.38
2023-02-17T04:31:44.765Z,104.82
2023-02-17T04:34:24.969Z,108.70
2023-02-17T04:37:03.225Z,109.15
2023-02-17T04:39:41.518Z,107.80
2023-02-17T04:42:16.041Z,115.13
2023-02-17T04:44:53.336Z,111.88
2023-02-17T04:47:26.348Z,118.05
2023-02-17T04:49:57.938Z,106.45
2023-02-17T04:52:33.785Z,112.78
2023-02-17T04:55:09.485Z,111.10
2023-02-17T04:57:44.283Z,112.78
2023-02-17T05:00:19.226Z,114.93
2023-02-17T05:02:59.716Z,107.28
2023-02-17T05:05:40.895Z,100.07
2023-02-17T05:08:16.337Z,100.75
2023-02-17T05:10:49.348Z,101.13
2023-02-17T05:13:28.333Z,103.90
2023-02-17T05:15:58.423Z,102.75
2023-02-17T05:18:30.679Z,102.90
2023-02-17T05:21:08.308Z,113.03
2023-02-17T05:23:55.695Z,112.97
2023-02-17T05:26:24.744Z,106.35
2023-02-17T05:29:07.927Z,110.72
2023-02-17T05:31:52.254Z,106.38
2023-02-17T05:34:25.020Z,108.72
2023-02-17T05:37:05.594Z,114.07
2023-02-17T05:39:42.341Z,115.75
2023-02-17T05:42:20.250Z,112.03
2023-02-17T05:44:55.300Z,114.32
2023-02-17T05:47:32.902Z,117.28
2023-02-17T05:50:14.510Z,115.05
2023-02-17T05:52:47.613Z,114.68
2023-02-17T05:55:22.250Z,113.30
2023-02-17T05:58:02.452Z,108.28
2023-02-17T06:00:38.318Z,109.38
2023-02-17T06:03:10.388Z,116.20
2023-02-17T06:05:53.497Z,116.00
2023-02-17T06:08:34.117Z,126.00
2023-02-17T06:11:12.602Z,125.60
2023-02-17T06:13:45.462Z,173.48
2023-02-17T06:16:27.229Z,145.20
2023-02-17T06:19:07.276Z,133.20
2023-02-17T06:21:42.378Z,136.63
2023-02-17T06:24:14.713Z,131.40
2023-02-17T06:26:54.300Z,135.23
2023-02-17T06:29:24.466Z,128.00
2023-02-17T06:32:03.375Z,119.45
2023-02-17T06:34:44.719Z,122.68
2023-02-17T06:37:22.963Z,113.00
2023-02-17T06:39:58.260Z,122.88
2023-02-17T06:42:31.106Z,119.57
2023-02-17T06:45:13.229Z,134.50
2023-02-17T06:47:56.542Z,129.35
2023-02-17T06:50:38.413Z,121.97
2023-02-17T06:53:16.744Z,117.22
2023-02-17T06:58:32.754Z,108.97
2023-02-17T07:01:15.421Z,109.03
2023-02-17T07:03:48.622Z,118.40
2023-02-17T07:06:26.126Z,132.35
2023-02-17T07:09:04.459Z,131.82
2023-02-17T07:11:45.282Z,132.98
2023-02-17T07:14:19.876Z,129.43
2023-02-17T07:17:01.137Z,120.68
2023-02-17T07:19:41.779Z,121.95
2023-02-17T07:22:25.671Z,114.38
2023-02-17T07:25:01.482Z,110.43
2023-02-17T07:27:43.249Z,107.03
2023-02-17T07:30:16.203Z,110.05
2023-02-17T07:32:52.329Z,116.30
2023-02-17T07:35:33.128Z,116.57
2023-02-17T07:38:09.303Z,120.65
2023-02-17T07:40:44.463Z,119.05
2023-02-17T07:43:19.567Z,115.05
2023-02-17T07:46:00.256Z,112.35
2023-02-17T07:48:36.046Z,113.13
2023-02-17T07:51:18.846Z,109.38
2023-02-17T07:53:55.117Z,108.10
2023-02-17T07:56:30.132Z,115.28
2023-02-17T07:59:10.855Z,112.25
2023-02-17T08:01:49.975Z,105.32
2023-02-17T08:04:36.293Z,104.57
2023-02-17T08:07:17.027Z,117.85
2023-02-17T08:10:16.635Z,114.15
2023-02-17T08:13:09.683Z,114.07
2023-02-17T08:15:44.930Z,110.25
2023-02-17T08:18:36.435Z,104.15
2023-02-17T08:21:09.297Z,99.10
2023-02-17T08:23:47.278Z,102.63
2023-02-17T08:26:26.019Z,98.32
2023-02-17T08:29:06.249Z,91.60
2023-02-17T08:31:47.586Z,94.88
2023-02-17T08:34:22.289Z,78.57
2023-02-17T08:36:59.549Z,67.80
2023-02-17T08:39:35.611Z,69.57
2023-02-17T08:42:13.024Z,66.38
2023-02-17T08:44:51.094Z,62.28
2023-02-17T08:47:28.961Z,68.03
2023-02-17T08:50:07.303Z,61.72
2023-02-17T08:52:44.622Z,53.08
2023-02-17T08:55:22.955Z,54.85
2023-02-17T08:57:58.369Z,54.55
2023-02-17T09:00:39.106Z,58.75
2023-02-17T09:03:22.776Z,57.05
2023-02-17T09:06:07.419Z,54.88
2023-02-17T09:08:44.248Z,51.83
2023-02-17T09:11:29.302Z,48.70
2023-02-17T09:14:01.605Z,47.88
2023-02-17T09:16:41.292Z,51.55
2023-02-17T09:19:19.904Z,47.47
2023-02-17T09:21:55.506Z,43.90
2023-02-17T09:27:14.966Z,43.70
2023-02-17T09:29:52.691Z,42.85
2023-02-17T09:32:35.784Z,42.35
2023-02-17T09:35:22.517Z,41.50
2023-02-17T09:38:09.321Z,42.17
2023-02-17T09:40:57.559Z,42.00
2023-02-17T09:43:42.988Z,43.75
2023-02-17T09:46:35.011Z,42.47
2023-02-17T09:49:23.940Z,43.78
2023-02-17T09:52:15.410Z,43.38
2023-02-17T09:55:11.451Z,41.80
2023-02-17T09:58:22.637Z,44.47
2023-02-17T10:01:12.346Z,42.00
2023-02-17T10:03:58.716Z,43.53
2023-02-17T10:06:44.569Z,43.47
2023-02-17T10:09:49.259Z,40.35
2023-02-17T10:12:38.842Z,41.78
2023-02-17T10:15:19.188Z,38.67
2023-02-17T10:18:25.452Z,38.85
2023-02-17T10:21:22.181Z,37.75
2023-02-17T10:23:55.379Z,37.50
2023-02-17T10:26:51.842Z,38.85
2023-02-17T10:30:10.846Z,37.72
2023-02-17T10:33:03.276Z,35.47
2023-02-17T10:36:22.313Z,34.40
2023-02-17T10:39:30.007Z,39.03
2023-02-17T10:42:31.558Z,35.33
2023-02-17T10:45:36.391Z,33.88
2023-02-17T10:48:51.339Z,35.33
2023-02-17T10:51:37.235Z,32.05
2023-02-17T10:54:31.556Z,33.80
2023-02-17T10:57:08.185Z,31.63
2023-02-17T10:59:52.486Z,33.15
2023-02-17T11:02:49.422Z,32.00
2023-02-17T11:05:42.087Z,31.70
2023-02-17T11:08:38.921Z,29.48
2023-02-17T11:11:30.161Z,27.30
2023-02-17T11:14:22.634Z,28.58
2023-02-17T11:17:30.454Z,30.95
2023-02-17T11:20:14.074Z,29.80
2023-02-17T11:23:13.460Z,27.33
2023-02-17T11:26:07.409Z,26.67
2023-02-17T11:28:51.760Z,27.38
2023-02-17T11:31:42.837Z,27.65
2023-02-17T11:34:31.957Z,25.98
2023-02-17T11:37:32.361Z,28.58
2023-02-17T11:40:44.636Z,25.63
2023-02-17T11:43:28.936Z,22.33
2023-02-17T11:46:26.430Z,20.48
2023-02-17T11:49:25.665Z,21.45
2023-02-17T11:52:23.094Z,22.20
2023-02-17T11:55:14.837Z,19.77
2023-02-17T11:58:09.652Z,17.55
2023-02-17T12:00:56.950Z,14.65
2023-02-17T12:04:03.692Z,13.15
2023-02-17T12:06:56.728Z,14.30
2023-02-17T12:10:00.109Z,13.23
2023-02-17T12:12:56.375Z,13.90
2023-02-17T12:15:56.420Z,13.30
2023-02-17T12:19:02.505Z,14.55
2023-02-17T12:21:56.798Z,13.95
2023-02-17T12:25:27.672Z,16.40
2023-02-17T12:28:34.992Z,16.77
2023-02-17T12:31:28.869Z,18.15
2023-02-17T12:34:51.372Z,18.95
2023-02-17T12:37:49.663Z,17.58
2023-02-17T12:40:44.130Z,18.75
2023-02-17T12:43:47.968Z,18.70
2023-02-17T12:46:34.377Z,19.38
2023-02-17T12:49:20.292Z,19.60
2023-02-17T12:52:07.293Z,20.20
2023-02-17T12:55:05.465Z,19.73
2023-02-17T12:57:56.284Z,22.48
2023-02-17T13:00:55.435Z,25.58
2023-02-17T13:03:42.860Z,24.73
2023-02-17T13:06:44.113Z,24.77
2023-02-17T13:10:02.331Z,25.58
2023-02-17T13:12:44.634Z,30.77
2023-02-17T13:15:52.805Z,32.78
2023-02-17T13:18:42.958Z,31.35
2023-02-17T13:21:49.323Z,31.05
2023-02-17T13:24:54.960Z,30.35
2023-02-17T13:27:40.887Z,31.00
2023-02-17T13:30:54.220Z,30.55
2023-02-17T13:33:42.987Z,31.67
2023-02-17T13:36:45.523Z,31.10
2023-02-17T13:39:46.494Z,21.17
2023-02-17T13:42:44.194Z,32.70
2023-02-17T13:45:40.673Z,31.60
2023-02-17T13:48:59.892Z,33.08
2023-02-17T13:51:36.687Z,38.65
2023-02-17T13:54:25.166Z,39.38
2023-02-17T13:57:14.396Z,33.78
2023-02-17T13:59:55.306Z,31.77
2023-02-17T14:02:39.777Z,29.00
2023-02-17T14:05:48.340Z,29.35
2023-02-17T14:08:56.016Z,30.58
2023-02-17T14:11:35.233Z,30.30
2023-02-17T14:14:22.237Z,29.20
2023-02-17T14:17:10.107Z,30.73
2023-02-17T14:20:00.060Z,33.72
2023-02-17T14:22:48.718Z,35.40
2023-02-17T14:25:36.744Z,32.13
2023-02-17T14:28:29.305Z,34.35
2023-02-17T14:31:27.335Z,35.05
2023-02-17T14:34:05.369Z,34.65
2023-02-17T14:37:01.306Z,33.78
2023-02-17T14:39:45.344Z,33.25
2023-02-17T14:45:10.622Z,34.25
2023-02-17T14:47:59.902Z,34.35
2023-02-17T14:50:42.377Z,36.22
2023-02-17T14:53:36.253Z,36.25
2023-02-17T14:56:20.620Z,36.97
2023-02-17T14:59:20.419Z,37.55
2023-02-17T15:02:12.538Z,35.90
2023-02-17T15:04:53.575Z,34.08
2023-02-17T15:07:40.930Z,36.30
2023-02-17T15:10:29.125Z,32.25
2023-02-17T15:13:19.907Z,32.30
2023-02-17T15:16:09.572Z,33.20
2023-02-17T15:18:50.045Z,32.47
2023-02-17T15:21:42.713Z,33.88
2023-02-17T15:24:30.503Z,32.88
2023-02-17T15:27:28.133Z,33.17
2023-02-17T15:30:08.980Z,30.27
2023-02-17T15:32:55.495Z,31.85
2023-02-17T15:35:36.370Z,30.08
2023-02-17T15:38:15.742Z,24.50
2023-02-17T15:40:56.764Z,32.58
2023-02-17T15:43:48.519Z,35.05
2023-02-17T15:46:58.364Z,34.65
2023-02-17T15:49:43.607Z,33.75
2023-02-17T15:52:38.616Z,35.65
2023-02-17T15:58:10.814Z,32.97
2023-02-17T16:00:52.088Z,33.50
2023-02-17T16:03:41.186Z,34.10
2023-02-17T16:06:24.236Z,34.83
2023-02-17T16:09:23.936Z,41.17
2023-02-17T16:12:08.178Z,46.63
2023-02-17T16:14:52.347Z,43.55
2023-02-17T16:17:39.204Z,37.53
2023-02-17T16:20:28.981Z,36.78
2023-02-17T16:23:13.173Z,35.53
2023-02-17T16:26:01.916Z,36.10
2023-02-17T16:28:45.816Z,35.35
2023-02-17T16:31:25.888Z,36.15
2023-02-17T16:34:01.688Z,34.78
2023-02-17T16:36:38.010Z,34.55
2023-02-17T16:39:18.028Z,37.35
2023-02-17T16:42:04.493Z,37.63
2023-02-17T16:44:53.685Z,37.83
2023-02-17T16:47:39.093Z,41.08
2023-02-17T16:50:32.451Z,43.08
2023-02-17T16:53:12.852Z,45.67
2023-02-17T16:55:57.327Z,45.97
2023-02-17T16:58:36.167Z,49.08
2023-02-17T17:01:34.188Z,50.10
2023-02-17T17:04:16.489Z,51.05
2023-02-17T17:07:01.400Z,51.85
2023-02-17T17:10:06.841Z,55.88
2023-02-17T17:12:57.228Z,59.05
2023-02-17T17:15:45.566Z,55.50
2023-02-17T17:18:35.911Z,57.13
2023-02-17T17:21:21.110Z,63.42
2023-02-17T17:23:56.867Z,60.13
2023-02-17T17:26:49.265Z,63.72
2023-02-17T17:29:28.376Z,62.28
2023-02-17T17:32:15.970Z,61.35
2023-02-17T17:34:56.129Z,61.38
2023-02-17T17:37:42.379Z,64.88
2023-02-17T17:40:34.413Z,60.42
2023-02-17T17:43:20.303Z,60.50
2023-02-17T17:46:01.507Z,63.30
2023-02-17T17:48:44.593Z,62.35
2023-02-17T17:51:26.300Z,59.88
2023-02-17T17:54:07.677Z,57.33
2023-02-17T17:56:52.109Z,59.42
2023-02-17T17:59:48.989Z,57.78
2023-02-17T18:02:38.391Z,56.75
2023-02-17T18:05:20.880Z,56.83
2023-02-17T18:08:20.539Z,54.78
2023-02-17T18:11:04.384Z,55.72
2023-02-17T18:13:53.444Z,51.53
2023-02-17T18:16:42.579Z,53.13
2023-02-17T18:19:23.269Z,55.42
2023-02-17T18:22:11.029Z,55.33
2023-02-17T18:25:04.281Z,52.90
2023-02-17T18:28:00.440Z,52.00
2023-02-17T18:30:50.422Z,52.00
2023-02-17T18:33:31.112Z,52.80
2023-02-17T18:36:27.027Z,52.83
2023-02-17T18:39:11.598Z,53.90
2023-02-17T18:42:05.181Z,56.00
2023-02-17T18:44:46.887Z,55.13
2023-02-17T18:47:33.163Z,55.38
2023-02-17T18:50:24.777Z,56.90
2023-02-17T18:53:17.777Z,51.53
2023-02-17T18:55:54.939Z,55.00
2023-02-17T18:58:33.076Z,56.20
2023-02-17T19:01:34.956Z,52.72
2023-02-17T19:04:20.854Z,52.20
2023-02-17T19:07:10.846Z,51.60
2023-02-17T19:09:54.680Z,53.95
2023-02-17T19:12:34.326Z,57.40
2023-02-17T19:15:20.651Z,82.72
2023-02-17T19:18:01.310Z,75.30
2023-02-17T19:20:42.103Z,67.80
2023-02-17T19:23:29.280Z,61.95
2023-02-17T19:26:12.533Z,59.58
2023-02-17T19:28:54.748Z,56.35
2023-02-17T19:31:30.270Z,55.45
2023-02-17T19:34:15.712Z,53.15
2023-02-17T19:36:57.362Z,53.17
2023-02-17T19:39:49.706Z,52.78
2023-02-17T19:42:33.176Z,51.45
2023-02-17T19:45:14.185Z,54.40
2023-02-17T19:47:54.772Z,49.05
2023-02-17T19:50:47.231Z,49.08
2023-02-17T19:53:26.334Z,49.97
2023-02-17T19:56:29.244Z,50.10
2023-02-17T19:59:17.127Z,47.85
2023-02-17T20:02:08.220Z,48.15
2023-02-17T20:04:48.819Z,51.45
2023-02-17T20:07:50.689Z,54.05
2023-02-17T20:10:37.505Z,52.65
2023-02-17T20:13:12.774Z,45.90
2023-02-17T20:16:10.553Z,44.90
2023-02-17T20:18:55.565Z,43.42
2023-02-17T20:21:35.818Z,45.80
2023-02-17T20:24:24.801Z,49.00
2023-02-17T20:27:05.571Z,45.22
2023-02-17T20:29:53.902Z,42.55
2023-02-17T20:32:52.793Z,40.80
2023-02-17T20:35:45.308Z,41.10
2023-02-17T20:38:32.728Z,44.97
2023-02-17T20:41:25.099Z,46.00
2023-02-17T20:44:05.837Z,45.30
2023-02-17T20:46:55.160Z,46.40
2023-02-17T20:49:36.472Z,44.95
2023-02-17T20:52:15.050Z,45.67
2023-02-17T20:54:55.827Z,45.50
2023-02-17T20:57:42.184Z,44.13
2023-02-17T21:00:29.313Z,45.80
2023-02-17T21:03:23.644Z,48.25
2023-02-17T21:06:23.213Z,46.42
2023-02-17T21:09:08.186Z,46.05
2023-02-17T21:11:48.944Z,49.53
2023-02-17T21:14:50.017Z,46.47
2023-02-17T21:17:31.786Z,42.13
2023-02-17T21:20:21.961Z,43.58
2023-02-17T21:23:05.582Z,44.50
2023-02-17T21:25:48.704Z,39.05
2023-02-17T21:28:39.758Z,38.22
2023-02-17T21:31:21.909Z,32.85
2023-02-17T21:34:09.126Z,34.08
2023-02-17T21:36:57.234Z,31.13
2023-02-17T21:39:32.356Z,29.48
2023-02-17T21:42:15.466Z,29.57
2023-02-17T21:45:05.457Z,29.25
2023-02-17T21:47:47.932Z,25.85
2023-02-17T21:50:27.342Z,27.48
2023-02-17T21:53:10.431Z,23.33
2023-02-17T21:55:54.276Z,25.88
2023-02-17T21:58:34.802Z,25.08
2023-02-17T22:01:12.742Z,21.88
2023-02-17T22:03:51.445Z,18.67
2023-02-17T22:06:35.295Z,18.25
2023-02-17T22:09:17.244Z,16.48
2023-02-17T22:12:03.056Z,15.82
2023-02-17T22:14:48.221Z,14.57
2023-02-17T22:17:29.255Z,14.55
2023-02-17T22:20:15.342Z,14.00
2023-02-17T22:22:54.271Z,14.82
2023-02-17T22:25:28.318Z,9.65
2023-02-17T22:28:07.696Z,10.98
2023-02-17T22:30:55.449Z,12.15
2023-02-17T22:33:39.020Z,11.52
2023-02-17T22:36:27.669Z,12.40
2023-02-17T22:39:11.944Z,10.77
2023-02-17T22:41:49.683Z,10.57
2023-02-17T22:44:30.493Z,8.98
2023-02-17T22:47:11.148Z,8.35
2023-02-17T22:49:44.487Z,8.43
2023-02-17T22:52:16.628Z,5.75
2023-02-17T22:55:02.427Z,5.63
2023-02-17T22:57:42.604Z,5.30
2023-02-17T23:00:19.251Z,4.50
2023-02-17T23:03:03.645Z,5.00
2023-02-17T23:05:39.420Z,4.35
2023-02-17T23:08:27.596Z,5.00
2023-02-17T23:11:43.402Z,5.28
2023-02-17T23:14:27.157Z,6.15
2023-02-17T23:17:10.497Z,6.13
2023-02-17T23:19:48.645Z,6.35
2023-02-17T23:22:27.006Z,6.43
2023-02-17T23:25:13.636Z,5.72
2023-02-17T23:27:57.414Z,6.63
2023-02-17T23:30:47.977Z,5.82
2023-02-17T23:33:31.727Z,6.00
2023-02-17T23:36:17.931Z,5.57
2023-02-17T23:39:03.758Z,5.22
2023-02-17T23:41:39.473Z,5.90
2023-02-17T23:44:26.602Z,5.32
2023-02-17T23:47:06.225Z,5.18
2023-02-17T23:49:44.209Z,3.80
2023-02-17T23:52:19.652Z,3.78
2023-02-17T23:55:00.005Z,4.03
2023-02-17T23:57:41.332Z,4.50
